Glouster Point, Virginia
Current Conditions -  °F | °C
As of 2:54 AM on Sunday 26 Oct 2014 (Local Time) from KPHF Reporting Station
Clear Clear  
Wind Chill: 57°   Ceiling: Unl
Heat Index: 57°   Visibility: 10mi
Dew Point: 46°   Wind: 7mph
Humidity: 67%   Direction: 240°WSW
Pressure: 29.74"   Gusts: NA
Location:  37.2577°N, 76.4965°W
Report Text: KPHF 260654Z 24006KT 10SM CLR 14/08 A2974 RMK AO2 SLP069 T01390078
Loading
Personal Weather Stations






























Interactive Weather Map New forecast layout! Learn more

10-Day Weather Forecast

Advertisements
Track Severe Weather on mobile